Terminal Aerodrome Forecast
Issued by NWS

Home | Current Version | Previous Version | Text Only | Print | Product List | Glossary On
Versions: 1 2 3 4 5 6 7 8 9 10 11 12 13 14 15 16 17 18 19 20
000
FTUS43 KICT 142348
TAFCNU
TAF
KCNU 142348Z 1500/1524 20007KT P6SM BKN250
     FM150400 21006KT P6SM VCSH BKN120
     FM150800 29008KT P6SM -SN OVC020
     FM150900 31008KT 2SM -SN BR OVC015
     FM151100 34009KT 3SM -SN OVC025
     FM151200 36010KT P6SM OVC050
     FM151500 35015G24KT P6SM VCSH OVC070=

USA.gov is the U.S. government's official web portal to all federal, state and local government web resources and services.